Time;durP1;ratioP1;P1;durP2;ratioP2;P2;SDS_P1;SDS_P2;PMS_P1;PMS_P2;Temp;Humidity;BMP_temperature;BMP_pressure;BME280_temperature;BME280_humidity;BME280_pressure;Samples;Min_cycle;Max_cycle;Signal;HPM_P1;HPM_P2
2022/04/04 00:01:53;;;;;;;5.55;2.50;;;5.40;98.40;;;;;;5061657;28;37406;-49
2022/04/04 00:04:20;;;;;;;5.28;1.95;;;4.90;98.20;;;;;;5062778;28;40035;-50
2022/04/04 00:06:48;;;;;;;7.85;2.55;;;4.90;98.10;;;;;;5061925;28;38369;-49
2022/04/04 00:09:15;;;;;;;4.25;2.08;;;4.90;98.10;;;;;;5061601;28;36902;-49
2022/04/04 00:11:42;;;;;;;8.68;2.70;;;4.90;98.10;;;;;;5063401;28;37597;-51
2022/04/04 00:14:11;;;;;;;6.05;1.90;;;4.90;98.10;;;;;;5062763;28;38781;-48
2022/04/04 00:16:38;;;;;;;4.88;1.92;;;4.90;98.00;;;;;;5062355;28;37388;-49
2022/04/04 00:19:06;;;;;;;6.28;2.38;;;4.80;98.00;;;;;;5062401;28;35289;-50
2022/04/04 00:21:33;;;;;;;4.18;2.15;;;4.80;98.20;;;;;;5062767;28;37704;-50
2022/04/04 00:24:01;;;;;;;6.55;2.50;;;4.80;98.30;;;;;;5062187;28;38782;-50
2022/04/04 00:26:28;;;;;;;5.85;2.05;;;4.80;98.40;;;;;;5061769;28;36136;-47
2022/04/04 00:28:55;;;;;;;8.40;2.63;;;4.80;98.30;;;;;;5062570;28;37651;-49
2022/04/04 00:31:24;;;;;;;6.25;2.55;;;4.70;98.50;;;;;;5061989;28;38302;-50
2022/04/04 00:33:51;;;;;;;8.18;2.40;;;4.70;98.60;;;;;;5062089;28;38685;-50
2022/04/04 00:36:19;;;;;;;8.10;2.30;;;4.60;98.80;;;;;;5062150;28;39857;-49
2022/04/04 00:38:46;;;;;;;7.97;2.60;;;4.60;98.70;;;;;;5062909;28;36267;-50
2022/04/04 00:41:15;;;;;;;5.88;2.83;;;4.60;98.90;;;;;;5062695;28;36322;-50
2022/04/04 00:43:43;;;;;;;5.45;2.33;;;4.60;99.00;;;;;;5062269;28;38684;-47
2022/04/04 00:46:10;;;;;;;6.75;2.58;;;4.50;99.20;;;;;;5061018;28;38993;-47
2022/04/04 00:48:39;;;;;;;8.65;2.38;;;4.50;99.30;;;;;;5060743;28;37420;-49
2022/04/04 00:51:06;;;;;;;11.40;2.83;;;4.60;99.30;;;;;;5062965;28;37727;-50
2022/04/04 00:53:34;;;;;;;7.53;2.50;;;4.60;99.30;;;;;;5065426;28;37732;-51
2022/04/04 00:56:01;;;;;;;5.38;2.47;;;4.60;99.40;;;;;;5065230;28;38797;-49
2022/04/04 00:58:30;;;;;;;10.75;3.15;;;4.50;99.60;;;;;;5065332;28;36811;-47
2022/04/04 01:00:59;;;;;;;8.27;3.15;;;4.50;99.90;;;;;;5066261;28;36871;-49
2022/04/04 01:03:26;;;;;;;5.50;3.00;;;4.50;99.80;;;;;;5064622;28;36398;-52
2022/04/04 01:05:58;;;;;;;5.95;3.00;;;4.50;99.80;;;;;;5063844;28;37848;-50
2022/04/04 01:08:25;;;;;;;8.48;2.83;;;4.50;99.90;;;;;;5064633;28;36500;-48
2022/04/04 01:10:52;;;;;;;5.93;3.00;;;4.50;99.90;;;;;;5065037;28;36463;-49
2022/04/04 01:13:20;;;;;;;9.65;3.63;;;4.50;99.90;;;;;;5064434;28;37290;-51
2022/04/04 01:15:47;;;;;;;7.60;3.53;;;4.60;99.90;;;;;;5064022;28;37449;-46
2022/04/04 01:18:14;;;;;;;8.73;3.63;;;4.60;99.90;;;;;;5064353;28;35128;-48
2022/04/04 01:20:42;;;;;;;7.07;3.50;;;4.60;99.90;;;;;;5064936;28;38232;-50
2022/04/04 01:23:13;;;;;;;7.55;3.58;;;4.60;99.90;;;;;;5065709;28;38232;-49
2022/04/04 01:25:42;;;;;;;9.32;4.47;;;4.60;99.90;;;;;;5064400;28;37260;-51
2022/04/04 01:28:09;;;;;;;8.82;4.32;;;4.70;99.90;;;;;;5065464;28;36667;-51
2022/04/04 01:30:38;;;;;;;8.85;4.20;;;4.70;99.90;;;;;;5065156;28;37813;-56
2022/04/04 01:33:05;;;;;;;7.82;4.45;;;4.70;99.90;;;;;;5064191;28;37405;-56
2022/04/04 01:35:38;;;;;;;8.32;4.78;;;4.70;99.90;;;;;;5065161;28;38224;-56
2022/04/04 01:38:05;;;;;;;9.57;5.43;;;4.80;99.90;;;;;;5064444;28;36263;-46
2022/04/04 01:40:33;;;;;;;10.70;6.43;;;4.80;99.90;;;;;;5065394;28;37658;-50
2022/04/04 01:43:01;;;;;;;11.95;6.25;;;5.00;99.90;;;;;;5065584;28;38184;-49
2022/04/04 01:48:16;;;;;;;13.10;6.88;;;4.90;99.90;;;;;;5046129;28;37074;-50
2022/04/04 01:50:43;;;;;;;13.80;6.88;;;4.90;99.90;;;;;;5064623;28;38200;-49
2022/04/04 01:53:30;;;;;;;11.77;7.47;;;4.90;99.90;;;;;;5064501;28;38888;-49
2022/04/04 01:56:01;;;;;;;11.70;7.35;;;4.90;99.90;;;;;;5064075;28;38729;-50
2022/04/04 01:58:29;;;;;;;15.18;8.57;;;4.90;99.90;;;;;;5064679;28;36551;-56
2022/04/04 02:01:00;;;;;;;14.43;8.00;;;5.00;99.90;;;;;;5064383;28;37438;-56
2022/04/04 02:03:29;;;;;;;17.85;9.23;;;5.00;99.90;;;;;;5063632;28;37918;-55
2022/04/04 02:05:57;;;;;;;15.70;8.80;;;5.00;99.90;;;;;;5062902;28;37221;-56
2022/04/04 02:08:24;;;;;;;14.13;9.25;;;5.00;99.90;;;;;;5063634;28;35369;-48
2022/04/04 02:10:51;;;;;;;20.10;9.93;;;5.00;99.90;;;;;;5064569;28;38987;-47
2022/04/04 02:13:19;;;;;;;15.32;9.80;;;5.00;99.90;;;;;;5065221;28;39597;-56
2022/04/04 02:15:47;;;;;;;18.70;9.85;;;5.00;99.90;;;;;;5063700;28;36295;-51
2022/04/04 02:18:15;;;;;;;16.08;8.60;;;5.10;99.90;;;;;;5064479;28;35294;-49
2022/04/04 02:20:42;;;;;;;15.13;9.85;;;5.10;99.90;;;;;;5064141;28;37555;-56
2022/04/04 02:23:10;;;;;;;11.73;8.27;;;5.10;99.90;;;;;;5065003;28;38658;-55
2022/04/04 02:25:37;;;;;;;14.63;9.60;;;5.10;99.90;;;;;;5064181;28;36189;-55
2022/04/04 02:28:05;;;;;;;17.35;8.77;;;5.10;99.90;;;;;;5064826;28;36566;-50
2022/04/04 02:30:32;;;;;;;14.25;8.32;;;5.10;99.90;;;;;;5063514;28;37193;-55
2022/04/04 02:33:02;;;;;;;16.02;9.60;;;5.10;99.90;;;;;;5064346;28;20061;-54
2022/04/04 02:35:29;;;;;;;13.18;9.07;;;5.10;99.90;;;;;;5063430;28;38564;-56
2022/04/04 02:37:57;;;;;;;14.52;8.57;;;5.10;99.90;;;;;;5063344;28;36404;-56
2022/04/04 02:40:24;;;;;;;18.08;10.50;;;5.10;99.90;;;;;;5064987;28;39921;-56
2022/04/04 02:42:52;;;;;;;15.45;9.88;;;5.30;99.90;;;;;;5064297;28;37981;-49
2022/04/04 02:45:20;;;;;;;17.48;10.02;;;5.10;99.90;;;;;;5064032;28;37339;-50
2022/04/04 02:47:47;;;;;;;17.08;9.93;;;5.10;99.90;;;;;;5064734;28;36809;-50
2022/04/04 02:50:16;;;;;;;17.02;10.48;;;5.10;99.90;;;;;;5064540;28;37239;-56
2022/04/04 02:52:44;;;;;;;14.02;9.40;;;5.10;99.90;;;;;;5063636;28;37408;-50
2022/04/04 02:58:06;;;;;;;15.02;9.50;;;5.10;99.90;;;;;;5022423;28;40079;-56
2022/04/04 03:00:34;;;;;;;14.88;9.65;;;5.20;99.90;;;;;;5064212;28;37155;-47
2022/04/04 03:03:01;;;;;;;15.77;9.88;;;5.20;99.90;;;;;;5064180;28;37639;-49
2022/04/04 03:05:30;;;;;;;18.23;9.38;;;5.20;99.90;;;;;;5063871;28;38159;-50
2022/04/04 03:07:58;;;;;;;18.63;10.65;;;5.20;99.90;;;;;;5063881;28;38446;-47
2022/04/04 03:10:25;;;;;;;15.05;10.45;;;5.20;99.90;;;;;;5063935;28;36210;-49
2022/04/04 03:12:53;;;;;;;19.20;10.50;;;5.30;99.90;;;;;;5064319;28;39207;-47
2022/04/04 03:15:22;;;;;;;16.42;9.63;;;5.30;99.90;;;;;;5062419;28;37541;-49
2022/04/04 03:17:51;;;;;;;20.13;10.48;;;5.20;99.90;;;;;;5063201;28;36827;-50
2022/04/04 03:20:20;;;;;;;18.67;10.20;;;5.30;99.90;;;;;;5063220;28;37131;-48
2022/04/04 03:22:50;;;;;;;14.73;10.55;;;5.40;99.90;;;;;;5063146;28;36417;-50
2022/04/04 03:25:18;;;;;;;22.58;10.70;;;5.40;99.90;;;;;;5063040;28;36391;-49
2022/04/04 03:27:47;;;;;;;17.80;10.88;;;5.40;99.90;;;;;;5062569;28;37018;-49
2022/04/04 03:30:17;;;;;;;19.27;10.48;;;5.40;99.90;;;;;;5063306;28;37332;-49
2022/04/04 03:32:45;;;;;;;15.98;9.88;;;5.40;99.90;;;;;;5062459;28;38745;-47
2022/04/04 03:35:14;;;;;;;17.17;10.02;;;5.40;99.90;;;;;;5062702;28;37264;-51
2022/04/04 03:37:43;;;;;;;17.15;10.43;;;5.50;99.90;;;;;;5062853;28;36575;-51
2022/04/04 03:40:13;;;;;;;18.60;10.40;;;5.50;99.90;;;;;;5062811;28;37826;-49
2022/04/04 03:42:42;;;;;;;17.08;10.77;;;5.50;99.90;;;;;;5062794;28;38532;-50
2022/04/04 03:45:12;;;;;;;16.73;10.43;;;5.50;99.90;;;;;;5062259;28;38350;-48
2022/04/04 03:47:40;;;;;;;18.17;11.23;;;5.50;99.90;;;;;;5063593;28;36677;-51
2022/04/04 03:50:09;;;;;;;22.23;11.20;;;5.60;99.90;;;;;;5062934;28;37342;-48
2022/04/04 03:52:37;;;;;;;16.25;11.30;;;5.60;99.90;;;;;;5063386;28;37785;-50
2022/04/04 03:55:05;;;;;;;17.05;10.80;;;5.60;99.90;;;;;;5062809;28;36311;-50
2022/04/04 03:57:34;;;;;;;18.13;11.85;;;5.60;99.90;;;;;;5062668;28;35618;-51
2022/04/04 04:00:01;;;;;;;18.20;11.65;;;5.60;99.90;;;;;;5062678;28;36430;-49
2022/04/04 04:02:28;;;;;;;18.00;11.32;;;5.60;99.90;;;;;;5062531;28;38878;-48
2022/04/04 04:04:56;;;;;;;16.63;11.88;;;5.60;99.90;;;;;;5062288;28;37298;-50
2022/04/04 04:07:24;;;;;;;18.70;11.27;;;5.60;99.90;;;;;;5061881;28;38152;-50
2022/04/04 04:09:53;;;;;;;24.95;11.75;;;5.70;99.90;;;;;;5062211;28;36423;-49
2022/04/04 04:12:21;;;;;;;22.38;12.35;;;5.70;99.90;;;;;;5062870;28;36527;-51
2022/04/04 04:14:51;;;;;;;17.50;10.77;;;5.70;99.90;;;;;;5063270;28;37006;-49
2022/04/04 04:17:19;;;;;;;20.42;11.75;;;5.70;99.90;;;;;;5062900;28;37761;-51
2022/04/04 04:22:31;;;;;;;20.67;12.93;;;5.80;99.90;;;;;;5062584;28;39060;-49
2022/04/04 04:25:01;;;;;;;19.75;10.98;;;5.90;99.90;;;;;;5062495;28;37313;-47
2022/04/04 04:27:28;;;;;;;18.23;11.18;;;5.90;99.90;;;;;;5061735;28;36719;-50
2022/04/04 04:29:57;;;;;;;19.58;11.18;;;5.90;99.90;;;;;;5062557;27;38055;-51
2022/04/04 04:32:24;;;;;;;20.48;12.18;;;6.00;99.90;;;;;;5059919;28;39861;-47
2022/04/04 04:34:52;;;;;;;18.30;11.43;;;6.00;99.90;;;;;;5062156;28;36424;-50
2022/04/04 04:37:21;;;;;;;20.20;12.32;;;6.00;99.90;;;;;;5060720;28;37774;-49
2022/04/04 04:39:48;;;;;;;21.00;10.38;;;6.00;99.90;;;;;;5061535;28;36294;-50
2022/04/04 04:42:16;;;;;;;20.02;10.95;;;6.00;99.90;;;;;;5061742;28;37682;-47
2022/04/04 04:44:44;;;;;;;21.38;11.27;;;6.00;99.90;;;;;;5061470;28;37862;-50
2022/04/04 04:47:14;;;;;;;16.10;10.07;;;6.00;99.90;;;;;;5061943;28;35623;-51
2022/04/04 04:49:41;;;;;;;17.33;11.50;;;6.00;99.90;;;;;;5061824;28;37373;-51
2022/04/04 04:52:08;;;;;;;21.30;11.88;;;6.00;99.90;;;;;;5062138;28;38808;-48
2022/04/04 04:54:36;;;;;;;17.95;10.77;;;6.10;99.90;;;;;;5062504;28;36799;-50
2022/04/04 04:57:04;;;;;;;19.23;11.13;;;6.00;99.90;;;;;;5061333;28;36970;-51
2022/04/04 04:59:31;;;;;;;19.42;10.15;;;6.00;99.90;;;;;;5062160;28;39933;-50
2022/04/04 05:01:59;;;;;;;17.40;9.27;;;6.00;99.90;;;;;;5059570;28;36411;-49
2022/04/04 05:04:27;;;;;;;17.05;8.93;;;6.00;99.90;;;;;;5060463;28;38729;-51
2022/04/04 05:06:55;;;;;;;13.68;8.60;;;6.00;99.90;;;;;;5060953;28;36744;-50
2022/04/04 05:09:22;;;;;;;18.40;8.40;;;6.00;99.90;;;;;;5060952;28;38285;-50
2022/04/04 05:11:49;;;;;;;13.80;7.68;;;6.00;99.90;;;;;;5061050;28;36301;-49
2022/04/04 05:14:17;;;;;;;14.75;7.15;;;6.00;99.90;;;;;;5061404;28;38726;-50
2022/04/04 05:16:44;;;;;;;14.70;7.47;;;5.90;99.90;;;;;;5060107;28;36363;-51
2022/04/04 05:19:12;;;;;;;13.73;7.43;;;5.90;99.90;;;;;;5059705;28;36303;-47
2022/04/04 05:21:41;;;;;;;11.93;7.63;;;6.00;99.90;;;;;;5060161;28;38424;-46
2022/04/04 05:24:09;;;;;;;12.68;7.25;;;5.90;99.90;;;;;;5061304;28;37392;-47
2022/04/04 05:26:37;;;;;;;15.23;7.45;;;5.80;99.90;;;;;;5061613;28;36674;-47
2022/04/04 05:29:05;;;;;;;16.10;7.57;;;5.80;99.90;;;;;;5061663;28;39422;-50
2022/04/04 05:31:33;;;;;;;13.73;7.57;;;5.90;99.90;;;;;;5059914;28;37881;-49
2022/04/04 05:34:04;;;;;;;19.55;7.72;;;5.80;99.90;;;;;;5059981;28;38785;-50
2022/04/04 05:36:33;;;;;;;14.38;7.45;;;5.80;99.90;;;;;;5060379;28;35236;-49
2022/04/04 05:39:03;;;;;;;16.33;7.78;;;5.80;99.90;;;;;;5063314;28;38698;-50
2022/04/04 05:41:30;;;;;;;15.90;7.82;;;5.80;99.90;;;;;;5063243;28;37377;-50
2022/04/04 05:43:58;;;;;;;15.07;7.55;;;5.80;99.90;;;;;;5064458;28;38253;-52
2022/04/04 05:46:25;;;;;;;13.23;6.68;;;5.80;99.90;;;;;;5064727;28;36630;-56
2022/04/04 05:48:53;;;;;;;15.80;7.45;;;5.80;99.90;;;;;;5064942;28;37416;-56
2022/04/04 05:51:20;;;;;;;10.88;5.85;;;5.70;99.90;;;;;;5064659;28;37806;-56
2022/04/04 05:53:47;;;;;;;12.95;6.35;;;5.70;99.90;;;;;;5065459;28;39540;-56
2022/04/04 05:56:16;;;;;;;14.38;6.30;;;5.70;99.90;;;;;;5064067;28;37562;-56
2022/04/04 05:58:43;;;;;;;16.60;7.40;;;5.70;99.90;;;;;;5064774;28;37802;-50
2022/04/04 06:01:11;;;;;;;10.70;5.25;;;5.70;99.90;;;;;;5064244;28;37664;-50
2022/04/04 06:03:38;;;;;;;13.05;5.70;;;5.60;99.90;;;;;;5063914;28;38838;-46
2022/04/04 06:06:06;;;;;;;11.48;4.80;;;5.60;99.90;;;;;;5064667;28;37196;-47
2022/04/04 06:08:33;;;;;;;13.35;4.47;;;5.60;99.90;;;;;;5064371;28;38901;-49
2022/04/04 06:11:00;;;;;;;8.35;3.65;;;5.60;99.90;;;;;;5063451;28;37251;-47
2022/04/04 06:13:29;;;;;;;8.43;3.90;;;5.50;99.90;;;;;;5060741;28;37550;-48
2022/04/04 06:15:56;;;;;;;12.10;3.20;;;5.50;99.90;;;;;;5062163;28;35572;-48
2022/04/04 06:18:24;;;;;;;6.07;2.83;;;5.50;99.90;;;;;;5063447;28;37294;-51
2022/04/04 06:20:51;;;;;;;7.05;2.90;;;5.50;99.90;;;;;;5063040;28;38238;-50
2022/04/04 06:23:18;;;;;;;11.38;3.00;;;5.50;99.90;;;;;;5062709;28;37264;-51
2022/04/04 06:25:49;;;;;;;7.22;2.80;;;5.50;99.90;;;;;;5062963;28;36501;-48
2022/04/04 06:28:16;;;;;;;8.98;2.75;;;5.50;99.90;;;;;;5063270;28;37956;-47
2022/04/04 06:30:45;;;;;;;8.35;2.65;;;5.50;99.90;;;;;;5062581;28;38577;-51
2022/04/04 06:33:13;;;;;;;7.05;2.70;;;5.40;99.90;;;;;;5062848;28;37485;-51
2022/04/04 06:35:40;;;;;;;7.57;2.53;;;5.50;99.90;;;;;;5063506;28;35279;-50
2022/04/04 06:38:08;;;;;;;8.00;3.30;;;5.50;99.90;;;;;;5062598;28;37215;-52
2022/04/04 06:40:36;;;;;;;8.82;2.90;;;5.40;99.90;;;;;;5060619;28;38731;-50
2022/04/04 06:43:03;;;;;;;6.13;2.55;;;5.50;99.90;;;;;;5061749;28;37345;-50
2022/04/04 06:45:30;;;;;;;8.27;2.83;;;5.50;99.90;;;;;;5062981;28;36030;-49
2022/04/04 06:47:59;;;;;;;6.70;2.65;;;5.50;99.90;;;;;;5062392;28;38472;-47
2022/04/04 06:50:27;;;;;;;7.53;2.88;;;5.50;99.90;;;;;;5062556;28;37526;-49
2022/04/04 06:52:54;;;;;;;7.28;3.58;;;5.50;99.90;;;;;;5063466;28;38206;-55
2022/04/04 06:55:21;;;;;;;6.75;2.92;;;5.60;99.90;;;;;;5062952;28;35804;-51
2022/04/04 06:57:49;;;;;;;6.45;3.40;;;5.60;99.90;;;;;;5062005;28;38916;-54
2022/04/04 07:00:17;;;;;;;9.27;3.22;;;5.60;99.90;;;;;;5059640;28;36530;-56
2022/04/04 07:02:45;;;;;;;10.10;3.30;;;5.60;99.90;;;;;;5061639;28;36236;-51
2022/04/04 07:05:14;;;;;;;10.80;3.50;;;5.70;99.90;;;;;;5063190;28;36912;-50
2022/04/04 07:07:41;;;;;;;9.23;3.67;;;5.70;99.90;;;;;;5062496;28;36196;-55
2022/04/04 07:10:10;;;;;;;9.13;3.88;;;5.70;99.90;;;;;;5063051;28;37682;-48
2022/04/04 07:12:41;;;;;;;7.85;4.03;;;5.80;99.90;;;;;;5063377;28;41426;-49
2022/04/04 07:15:10;;;;;;;11.02;5.05;;;5.80;99.90;;;;;;5061692;28;36539;-50
2022/04/04 07:17:38;;;;;;;11.05;4.97;;;5.80;99.90;;;;;;5061957;28;37481;-49
2022/04/04 07:20:07;;;;;;;8.63;4.95;;;5.80;99.90;;;;;;5062442;28;39682;-56
2022/04/04 07:22:37;;;;;;;11.50;5.72;;;5.90;99.90;;;;;;5062442;28;37347;-56
2022/04/04 07:25:07;;;;;;;13.65;5.78;;;5.90;99.90;;;;;;5057030;28;37075;-56
2022/04/04 07:27:35;;;;;;;15.98;5.78;;;6.00;99.90;;;;;;5062133;28;37108;-48
2022/04/04 07:30:03;;;;;;;12.73;5.53;;;5.90;99.90;;;;;;5059756;28;37667;-49
2022/04/04 07:32:30;;;;;;;12.23;6.20;;;5.90;99.90;;;;;;5061361;28;37519;-55
2022/04/04 07:34:58;;;;;;;14.70;6.43;;;6.00;99.90;;;;;;5062011;28;35480;-56
2022/04/04 07:37:25;;;;;;;9.55;5.72;;;6.00;99.90;;;;;;5062853;28;38963;-56
2022/04/04 07:39:54;;;;;;;10.48;5.70;;;6.00;99.90;;;;;;5063034;28;38448;-55
2022/04/04 07:42:21;;;;;;;14.02;6.50;;;6.10;99.90;;;;;;5062842;28;37984;-56
2022/04/04 07:44:48;;;;;;;10.52;5.95;;;6.10;99.90;;;;;;5061889;28;35229;-56
2022/04/04 07:47:16;;;;;;;11.63;5.85;;;6.10;99.90;;;;;;5063222;28;39692;-48
2022/04/04 07:49:43;;;;;;;9.88;4.82;;;6.20;99.90;;;;;;5062940;28;37727;-51
2022/04/04 07:52:11;;;;;;;10.48;5.50;;;6.10;99.90;;;;;;5063202;28;37019;-50
2022/04/04 07:54:38;;;;;;;11.73;5.70;;;6.10;99.90;;;;;;5062943;28;36464;-47
2022/04/04 07:57:07;;;;;;;12.05;5.93;;;6.20;99.90;;;;;;5061682;28;36381;-51
2022/04/04 07:59:34;;;;;;;11.00;5.75;;;6.20;99.90;;;;;;5062428;28;38480;-49
2022/04/04 08:02:01;;;;;;;14.05;5.78;;;6.20;99.90;;;;;;5061610;28;36898;-48
2022/04/04 08:04:29;;;;;;;10.40;4.88;;;6.30;99.90;;;;;;5063252;28;36539;-47
2022/04/04 08:06:56;;;;;;;9.70;5.10;;;6.30;99.90;;;;;;5063377;28;36489;-50
2022/04/04 08:09:23;;;;;;;9.93;5.22;;;6.30;99.90;;;;;;5063003;28;38124;-56
2022/04/04 08:11:52;;;;;;;9.57;4.78;;;6.40;99.90;;;;;;5062875;28;37461;-56
2022/04/04 08:14:21;;;;;;;15.02;5.32;;;6.30;99.90;;;;;;5063068;28;38869;-57
2022/04/04 08:16:49;;;;;;;11.60;5.15;;;6.40;99.90;;;;;;5062668;28;37378;-56
2022/04/04 08:19:16;;;;;;;10.02;4.43;;;6.40;99.90;;;;;;5062628;28;37585;-56
2022/04/04 08:21:44;;;;;;;9.50;4.45;;;6.40;99.90;;;;;;5062454;28;39996;-56
2022/04/04 08:24:12;;;;;;;7.75;4.10;;;6.40;99.90;;;;;;5062039;28;39999;-47
2022/04/04 08:26:40;;;;;;;10.30;4.60;;;6.40;99.90;;;;;;5061493;28;37660;-48
2022/04/04 08:29:09;;;;;;;7.13;4.35;;;6.50;99.90;;;;;;5061480;28;38560;-50
2022/04/04 08:31:39;;;;;;;10.20;4.32;;;6.50;99.90;;;;;;5062076;28;37897;-50
2022/04/04 08:34:07;;;;;;;10.23;3.97;;;6.60;99.90;;;;;;5062448;28;35189;-51
2022/04/04 08:36:34;;;;;;;10.40;4.18;;;6.50;99.90;;;;;;5062809;28;39233;-49
2022/04/04 08:39:02;;;;;;;7.38;3.75;;;6.60;99.90;;;;;;5062232;28;38893;-50
2022/04/04 08:41:32;;;;;;;6.65;2.90;;;6.60;99.90;;;;;;5061495;28;37248;-56
2022/04/04 08:44:01;;;;;;;10.23;3.90;;;6.60;99.90;;;;;;5062468;28;37054;-56
2022/04/04 08:46:29;;;;;;;7.93;2.75;;;6.60;99.90;;;;;;5062266;28;37464;-48
2022/04/04 08:48:58;;;;;;;6.38;2.60;;;6.60;99.90;;;;;;5061762;28;37869;-56
2022/04/04 08:51:26;;;;;;;4.85;2.90;;;6.60;99.90;;;;;;5062116;28;36050;-57
2022/04/04 08:53:54;;;;;;;5.47;2.53;;;6.70;99.90;;;;;;5062589;28;36051;-48
2022/04/04 08:56:25;;;;;;;6.28;2.72;;;6.70;99.90;;;;;;5061468;28;38584;-48
2022/04/04 08:58:52;;;;;;;4.97;2.47;;;6.70;99.90;;;;;;5062178;28;38794;-50
2022/04/04 09:01:20;;;;;;;6.50;2.50;;;6.70;99.90;;;;;;5061234;28;38782;-50
2022/04/04 09:03:53;;;;;;;5.53;2.80;;;6.70;99.90;;;;;;5061194;28;36554;-47
2022/04/04 09:06:22;;;;;;;7.97;2.78;;;6.80;99.90;;;;;;5061746;28;37071;-51
2022/04/04 09:08:51;;;;;;;5.50;2.50;;;6.90;99.90;;;;;;5061827;28;39601;-48
2022/04/04 09:11:18;;;;;;;7.57;2.30;;;6.80;99.90;;;;;;5061983;28;38410;-50
2022/04/04 09:13:46;;;;;;;7.22;2.40;;;6.80;99.90;;;;;;5065741;28;36464;-51
2022/04/04 09:16:13;;;;;;;9.25;3.00;;;6.80;99.90;;;;;;5064505;28;37686;-51
2022/04/04 09:18:42;;;;;;;7.00;2.60;;;6.80;99.90;;;;;;5065871;28;37626;-51
2022/04/04 09:21:11;;;;;;;6.82;2.40;;;6.90;99.90;;;;;;5064384;28;37742;-47
2022/04/04 09:23:55;;;;;;;7.70;2.50;;;6.90;99.90;;;;;;5064347;28;38757;-47
2022/04/04 09:26:31;;;;;;;5.43;2.33;;;6.90;99.90;;;;;;5064672;28;37394;-49
2022/04/04 09:28:59;;;;;;;6.75;2.40;;;6.90;99.90;;;;;;5065191;28;38608;-51
2022/04/04 09:31:27;;;;;;;7.20;1.92;;;6.90;99.90;;;;;;5065215;28;38051;-51
2022/04/04 09:33:59;;;;;;;7.88;2.50;;;6.90;99.90;;;;;;5064595;28;36587;-50
2022/04/04 09:36:26;;;;;;;9.50;2.20;;;7.00;99.90;;;;;;5065130;28;37229;-48
2022/04/04 09:39:05;;;;;;;9.75;2.22;;;7.00;99.90;;;;;;5065474;28;37185;-47
2022/04/04 09:41:32;;;;;;;7.93;2.45;;;7.00;99.90;;;;;;5064461;28;38921;-51
2022/04/04 09:44:03;;;;;;;9.30;2.45;;;7.00;99.90;;;;;;5065508;28;36033;-51
2022/04/04 09:46:35;;;;;;;5.03;2.00;;;7.00;99.90;;;;;;5064666;28;38757;-49
2022/04/04 09:49:13;;;;;;;4.60;2.00;;;7.10;99.90;;;;;;5065276;28;38658;-50
2022/04/04 09:51:48;;;;;;;6.55;1.90;;;7.00;99.90;;;;;;5065253;28;38592;-48
2022/04/04 09:54:19;;;;;;;8.90;2.40;;;7.10;99.90;;;;;;5065007;28;35270;-52
2022/04/04 09:56:50;;;;;;;6.80;2.38;;;7.10;99.90;;;;;;5063949;28;36203;-49
2022/04/04 09:59:18;;;;;;;7.20;2.83;;;7.20;99.90;;;;;;5064204;28;37595;-49
2022/04/04 10:01:47;;;;;;;8.68;2.10;;;7.20;99.90;;;;;;5064282;28;37474;-56
2022/04/04 10:04:15;;;;;;;4.18;1.80;;;7.30;99.90;;;;;;5064884;28;38879;-56
2022/04/04 10:06:47;;;;;;;5.50;2.13;;;7.30;99.90;;;;;;5064490;28;38123;-56
2022/04/04 10:09:18;;;;;;;6.85;2.28;;;7.30;99.90;;;;;;5064148;28;37683;-56
2022/04/04 10:11:47;;;;;;;6.00;1.90;;;7.30;99.90;;;;;;5064783;28;38864;-56
2022/04/04 10:14:17;;;;;;;6.82;1.90;;;7.30;99.90;;;;;;5064511;28;36476;-56
2022/04/04 10:16:44;;;;;;;5.55;2.30;;;7.30;99.90;;;;;;5064770;28;36342;-56
2022/04/04 10:19:14;;;;;;;4.60;1.55;;;7.30;99.90;;;;;;5063629;28;38030;-56
2022/04/04 10:21:41;;;;;;;5.15;1.70;;;7.30;99.90;;;;;;5062365;28;37115;-56
2022/04/04 10:24:09;;;;;;;7.32;2.33;;;7.40;99.90;;;;;;5061824;28;36025;-56
2022/04/04 10:26:38;;;;;;;5.45;2.40;;;7.40;99.90;;;;;;5062292;28;38876;-56
2022/04/04 10:29:15;;;;;;;4.13;1.55;;;7.40;99.90;;;;;;5062176;28;37714;-55
2022/04/04 10:31:44;;;;;;;4.57;1.80;;;7.50;99.90;;;;;;5061172;28;37356;-57
2022/04/04 10:34:13;;;;;;;5.90;1.92;;;7.50;99.90;;;;;;5061201;28;36630;-56
2022/04/04 10:36:55;;;;;;;8.05;1.92;;;7.50;99.90;;;;;;5064092;28;38046;-56
2022/04/04 10:39:33;;;;;;;4.78;1.48;;;7.50;99.90;;;;;;5063552;28;38647;-56
2022/04/04 10:42:02;;;;;;;5.13;1.48;;;7.60;99.90;;;;;;5062670;28;37652;-56
2022/04/04 10:44:50;;;;;;;4.95;1.67;;;7.60;99.90;;;;;;5063878;28;37116;-56
2022/04/04 10:47:21;;;;;;;5.53;1.58;;;7.60;99.90;;;;;;5063814;28;37585;-57
2022/04/04 10:49:48;;;;;;;3.53;1.33;;;7.60;99.90;;;;;;5064426;28;38887;-56
2022/04/04 10:52:18;;;;;;;2.97;1.58;;;7.60;99.90;;;;;;5064429;28;37389;-56
2022/04/04 10:54:46;;;;;;;2.70;1.10;;;7.60;99.90;;;;;;5064285;28;37908;-56
2022/04/04 10:57:17;;;;;;;6.63;1.20;;;7.60;99.90;;;;;;5063909;28;38454;-56
2022/04/04 10:59:46;;;;;;;5.75;1.48;;;7.70;99.90;;;;;;5064683;28;38246;-57
2022/04/04 11:02:18;;;;;;;4.22;1.15;;;7.70;99.90;;;;;;5060647;28;37585;-56
2022/04/04 11:07:41;;;;;;;2.90;1.10;;;7.70;99.90;;;;;;5062697;28;37966;-57
2022/04/04 11:10:10;;;;;;;3.03;1.00;;;7.70;99.90;;;;;;5063686;28;37835;-56
2022/04/04 11:12:55;;;;;;;2.95;0.73;;;7.80;99.90;;;;;;5063060;28;38799;-56
2022/04/04 11:15:41;;;;;;;3.05;1.00;;;7.80;99.90;;;;;;5062978;28;35319;-56
2022/04/04 11:18:10;;;;;;;2.95;0.77;;;7.80;99.90;;;;;;5063379;28;37488;-56
2022/04/04 11:20:46;;;;;;;2.85;0.98;;;7.80;99.90;;;;;;5062805;28;36423;-56
2022/04/04 11:23:14;;;;;;;3.00;1.00;;;7.90;99.90;;;;;;5064152;28;38128;-56
2022/04/04 11:25:51;;;;;;;3.03;0.82;;;7.90;99.90;;;;;;5063438;28;37594;-57
2022/04/04 11:28:20;;;;;;;3.60;1.02;;;7.90;99.90;;;;;;5062673;28;36385;-56
2022/04/04 11:30:48;;;;;;;3.05;1.00;;;7.90;99.90;;;;;;5063490;28;37967;-56
2022/04/04 11:33:22;;;;;;;5.70;0.82;;;7.90;99.90;;;;;;5061934;28;37375;-56
2022/04/04 11:35:50;;;;;;;1.88;0.70;;;8.00;99.90;;;;;;5062006;28;37402;-56
2022/04/04 11:38:19;;;;;;;2.00;0.65;;;8.00;99.90;;;;;;5062951;28;38239;-56
2022/04/04 11:40:53;;;;;;;1.95;0.80;;;8.10;99.90;;;;;;5063332;28;36460;-57
2022/04/04 11:43:24;;;;;;;2.25;0.60;;;8.10;99.90;;;;;;5063344;28;39201;-56
2022/04/04 11:45:53;;;;;;;1.17;0.47;;;8.10;99.90;;;;;;5061821;28;38816;-57
2022/04/04 11:48:26;;;;;;;2.38;0.52;;;8.10;99.90;;;;;;5061648;28;38582;-56
2022/04/04 11:50:57;;;;;;;2.08;0.47;;;8.10;99.90;;;;;;5061938;28;36337;-56
2022/04/04 11:53:27;;;;;;;1.80;0.63;;;8.10;99.90;;;;;;5061487;28;37912;-56
2022/04/04 11:56:00;;;;;;;1.17;0.52;;;8.10;99.90;;;;;;5060917;28;36611;-57
2022/04/04 11:58:28;;;;;;;1.48;0.80;;;8.10;99.90;;;;;;5060811;28;37598;-56
2022/04/04 12:01:04;;;;;;;1.23;0.70;;;8.20;99.90;;;;;;5062142;28;38798;-57
2022/04/04 12:03:39;;;;;;;2.83;0.80;;;8.20;99.90;;;;;;5061294;28;37393;-56
2022/04/04 12:06:07;;;;;;;2.50;0.57;;;8.20;99.90;;;;;;5062320;28;37752;-56
2022/04/04 12:08:36;;;;;;;2.95;0.70;;;8.30;99.90;;;;;;5062335;28;38463;-57
2022/04/04 12:11:05;;;;;;;2.25;0.77;;;8.20;99.90;;;;;;5061717;28;39075;-56
2022/04/04 12:13:32;;;;;;;1.83;0.68;;;8.30;99.90;;;;;;5062128;28;38151;-57
2022/04/04 12:16:00;;;;;;;1.38;0.70;;;8.30;99.90;;;;;;5061195;28;35279;-57
2022/04/04 12:18:29;;;;;;;1.05;0.50;;;8.30;99.90;;;;;;5062252;28;37423;-57
2022/04/04 12:20:59;;;;;;;3.17;1.75;;;8.40;99.90;;;;;;5062615;28;36366;-57
2022/04/04 12:26:15;;;;;;;5.70;0.90;;;8.40;99.90;;;;;;5062059;28;38718;-56
2022/04/04 12:28:52;;;;;;;1.20;0.60;;;8.50;99.90;;;;;;5062735;28;37453;-56
2022/04/04 12:31:21;;;;;;;2.30;0.80;;;8.50;99.90;;;;;;5061929;28;37742;-57
2022/04/04 12:33:54;;;;;;;3.70;1.00;;;8.50;99.90;;;;;;5060311;28;36891;-56
2022/04/04 12:36:29;;;;;;;1.90;0.75;;;8.60;99.90;;;;;;5060679;28;37509;-57
2022/04/04 12:38:58;;;;;;;2.67;1.00;;;8.60;99.90;;;;;;5061130;28;38846;-57
2022/04/04 12:41:26;;;;;;;2.33;1.08;;;8.70;99.90;;;;;;5061749;28;37858;-57
2022/04/04 12:44:00;;;;;;;4.28;1.13;;;8.70;99.90;;;;;;5061307;28;38685;-57
2022/04/04 12:46:29;;;;;;;2.75;1.05;;;8.70;99.90;;;;;;5060212;28;36595;-57
2022/04/04 12:49:09;;;;;;;6.00;1.70;;;8.80;99.90;;;;;;5057217;28;38098;-57
2022/04/04 12:51:38;;;;;;;2.72;1.20;;;8.80;99.90;;;;;;5060684;28;37666;-56
2022/04/04 12:54:05;;;;;;;3.08;1.50;;;8.80;99.90;;;;;;5060180;28;37395;-56
2022/04/04 12:56:50;;;;;;;4.85;1.35;;;8.90;99.90;;;;;;5061185;28;34156;-56
2022/04/04 12:59:18;;;;;;;6.85;1.45;;;8.90;99.90;;;;;;5060199;28;38498;-56
2022/04/04 13:02:02;;;;;;;3.45;1.30;;;8.90;99.90;;;;;;5062758;28;38497;-56
2022/04/04 13:04:30;;;;;;;5.70;1.70;;;9.00;99.90;;;;;;5060850;28;37813;-57
2022/04/04 13:07:00;;;;;;;2.72;1.50;;;9.00;99.90;;;;;;5061587;28;37598;-56
2022/04/04 13:09:30;;;;;;;5.25;1.75;;;9.00;99.90;;;;;;5061214;28;37684;-56
2022/04/04 13:11:59;;;;;;;3.42;1.60;;;9.00;99.90;;;;;;5060796;28;36409;-57
2022/04/04 13:14:27;;;;;;;2.47;1.60;;;9.00;99.90;;;;;;5059612;28;37247;-57